Pacific Freedom — WDH6614 — position and weather

sailwx.info

Track history (hours):
 
Tides and Currents Weather Stations Pressure Air Temp Water Temp Dewpoint Dewpoint Depression Visibility Wind Speed Wind Dir Waves Ship Positions

Pacific Freedom

Owner: Atlas Marine Towing, LLC, San Diego, CA. More information available from US FCC via Universal Licensing System and Coast Guard Vessel Documentation Center.

Last reported at 2017-Nov-19 19:30 UTC. Time now 2017-Nov-19 19:52 UTC.
Position N 37°43' W 122°45'.

Length 35 m; draft 4 m.

Type: Tug. MMSI: 367639830.

Date/timePositionNaut miles runAvg speedWind from/ knotsBaromVisibWave heightAir tempDewpointWater temp
2017-Nov-19 19:30N 37°43' W 122°45'4 7.6
2017-Nov-19 19:00N 37°45' W 122°41'4 7.8
2017-Nov-19 18:30N 37°46' W 122°36'3 6.9
2017-Nov-19 18:00N 37°48' W 122°33'3 5.7
2017-Nov-19 17:30N 37°49' W 122°30'3 5.3
2017-Nov-19 17:00N 37°50' W 122°26'3 6.3
2017-Nov-19 16:30N 37°50' W 122°22'2 4.0
2017-Nov-19 16:00N 37°49' W 122°21'0 0.7
2017-Nov-19 15:31N 37°48' W 122°21'1 1.1
2017-Nov-19 15:01N 37°49' W 122°21'0 0.7
2017-Nov-19 14:30N 37°49' W 122°21'1 1.8
2017-Nov-19 14:00N 37°48' W 122°21'0 0.2
2017-Nov-19 13:30N 37°48' W 122°21'2 4.7
2017-Nov-19 13:00N 37°49' W 122°24'3 6.4
2017-Nov-19 12:30N 37°49' W 122°28'3 5.2
2017-Nov-19 12:00N 37°48' W 122°31'3 6.3
2017-Nov-19 11:30N 37°47' W 122°35'4 7.1
2017-Nov-19 11:00N 37°45' W 122°39'4 7.2
2017-Nov-19 10:29N 37°43' W 122°43'4 8.1
2017-Nov-19 10:00N 37°41' W 122°47'4 8.0
2017-Nov-19 09:30N 37°39' W 122°51'4 7.9
2017-Nov-19 09:00N 37°37' W 122°56'4 8.3
2017-Nov-19 08:30N 37°37' W 123°01'4 8.2
2017-Nov-19 08:00N 37°38' W 123°06'4 7.8
2017-Nov-19 07:30N 37°38' W 123°11'4 7.6
2017-Nov-19 07:00N 37°38' W 123°16'4 7.7
2017-Nov-19 06:30N 37°39' W 123°21'4 7.7
2017-Nov-19 06:00N 37°39' W 123°25'3 6.0
2017-Nov-19 05:30N 37°39' W 123°29'6 6.7
2017-Nov-19 04:39N 37°39' W 123°22'1 6.8
2017-Nov-19 04:29N 37°39' W 123°20'8 6.5
2017-Nov-19 03:17N 37°38' W 123°10'2 6.4
2017-Nov-19 03:00N 37°38' W 123°08'3 6.4
2017-Nov-19 02:30N 37°38' W 123°04'3 6.4
2017-Nov-19 02:00N 37°37' W 123°00'3 6.6
2017-Nov-19 01:30N 37°39' W 122°56'3 6.9
2017-Nov-19 01:00N 37°40' W 122°53'3 6.9
2017-Nov-19 00:30N 37°42' W 122°49'4 6.7
2017-Nov-18 23:57N 37°44' W 122°45'3 6.4
2017-Nov-18 23:27N 37°46' W 122°41'3 6.8
2017-Nov-18 23:00N 37°46' W 122°38'4 8.1
2017-Nov-18 22:30N 37°48' W 122°33'5 9.1
2017-Nov-18 22:00N 37°50' W 122°28'4 7.6
2017-Nov-18 21:30N 37°49' W 122°23'2 3.5
2017-Nov-18 21:00N 37°48' W 122°21'2 3.3
2017-Nov-18 20:30N 37°50' W 122°21'0 0.1
2017-Nov-18 20:00N 37°50' W 122°21'0 0.0
2017-Nov-18 19:30N 37°50' W 122°21'0 0.0
2017-Nov-18 19:00N 37°50' W 122°21'0 0.4
2017-Nov-18 18:30N 37°50' W 122°21'2 4.7
2017-Nov-18 18:00N 37°49' W 122°18'0 0.0
2017-Nov-18 17:31N 37°49' W 122°18'0 0.0
2017-Nov-18 17:01N 37°49' W 122°18'0 0.0
2017-Nov-18 16:30N 37°49' W 122°18'0 0.0
2017-Nov-18 16:00N 37°49' W 122°18'0 0.1
2017-Nov-18 15:30N 37°49' W 122°19'0 0.0
2017-Nov-18 15:00N 37°49' W 122°19'0 0.1
2017-Nov-18 14:31N 37°49' W 122°18'0 0.1
2017-Nov-18 14:01N 37°49' W 122°19'0 0.1
2017-Nov-18 13:31N 37°49' W 122°18'0 0.0
2017-Nov-18 13:01N 37°49' W 122°18'0 0.1
2017-Nov-18 12:31N 37°49' W 122°19'0 0.5
2017-Nov-18 12:01N 37°49' W 122°19'0 0.0
2017-Nov-18 11:30N 37°49' W 122°19'0 0.0
2017-Nov-18 11:00N 37°49' W 122°19'0 0.1
2017-Nov-18 10:30N 37°49' W 122°19'2 4.2
2017-Nov-18 10:00N 37°50' W 122°21'1 2.3
2017-Nov-18 09:31N 37°50' W 122°23'2 4.9
2017-Nov-18 09:00N 37°49' W 122°26'3 6.0
2017-Nov-18 08:30N 37°49' W 122°29'5 9.2
2017-Nov-18 08:00N 37°47' W 122°34'4 8.8
2017-Nov-18 07:30N 37°45' W 122°39'4 8.1
2017-Nov-18 06:58N 37°42' W 122°44'4 8.3
2017-Nov-18 06:30N 37°40' W 122°48'4 8.5
2017-Nov-18 06:00N 37°38' W 122°53'4 7.9
2017-Nov-18 05:30N 37°37' W 122°57'4 8.7
2017-Nov-18 05:00N 37°37' W 123°03'4 8.8
2017-Nov-18 04:30N 37°38' W 123°08'4 8.8
2017-Nov-18 04:00N 37°38' W 123°14'6 1.4
2017-Nov-18 00:05N 37°38' W 123°07'1 7.1
2017-Nov-17 23:59N 37°38' W 123°06'4 7.5
2017-Nov-17 23:30N 37°38' W 123°02'4 7.3
2017-Nov-17 23:00N 37°38' W 122°57'11 7.8
2017-Nov-17 21:33N 37°44' W 122°44'1 8.0
2017-Nov-17 21:25N 37°44' W 122°43'3 7.3
2017-Nov-17 21:00N 37°45' W 122°39'4 7.9
2017-Nov-17 20:30N 37°46' W 122°35'4 8.2
2017-Nov-17 20:00N 37°49' W 122°30'4 7.5
2017-Nov-17 19:30N 37°50' W 122°26'4 7.1
2017-Nov-17 19:00N 37°48' W 122°22'1 2.4
2017-Nov-17 18:31N 37°48' W 122°21'1 1.0
2017-Nov-17 18:00N 37°49' W 122°21'0 0.4
2017-Nov-17 17:30N 37°49' W 122°21'1 2.0
2017-Nov-17 17:01N 37°50' W 122°21'0 0.0
2017-Nov-17 16:30N 37°50' W 122°21'0 0.0
2017-Nov-17 16:00N 37°50' W 122°21'0 0.0
2017-Nov-17 15:31N 37°50' W 122°21'0 0.0
2017-Nov-17 15:00N 37°50' W 122°21'0 0.0
2017-Nov-17 14:30N 37°50' W 122°21'0 0.0
2017-Nov-17 14:00N 37°50' W 122°21'0 0.0
2017-Nov-17 13:30N 37°50' W 122°21'0 0.0
2017-Nov-17 13:00N 37°50' W 122°21'0 0.1
2017-Nov-17 12:30N 37°50' W 122°21'0 0.0
2017-Nov-17 12:01N 37°50' W 122°21'0 0.0
2017-Nov-17 11:30N 37°50' W 122°21'0 0.0
2017-Nov-17 11:01N 37°50' W 122°21'0 0.0
2017-Nov-17 10:30N 37°50' W 122°21'0 0.0
2017-Nov-17 10:01N 37°50' W 122°21'0 0.0
2017-Nov-17 09:30N 37°50' W 122°21'0 0.0
2017-Nov-17 09:00N 37°50' W 122°21'0 0.1
2017-Nov-17 08:30N 37°50' W 122°21'2 3.3
2017-Nov-17 08:01N 37°48' W 122°21'1 1.3
2017-Nov-17 07:31N 37°49' W 122°21'1 2.6
2017-Nov-17 07:00N 37°50' W 122°22'0 0.5
2017-Nov-17 06:30N 37°50' W 122°22'0 0.4
2017-Nov-17 06:00N 37°50' W 122°22'1 1.9
2017-Nov-17 05:30N 37°50' W 122°23'3 6.9
2017-Nov-17 05:00N 37°49' W 122°27'510.4
2017-Nov-17 04:30N 37°47' W 122°33'4 8.6
2017-Nov-17 04:00N 37°45' W 122°38'4 7.3
2017-Nov-17 03:30N 37°43' W 122°42'5 9.0
2017-Nov-17 02:59N 37°41' W 122°47'4 8.9
2017-Nov-17 02:30N 37°38' W 122°52'4 8.5
2017-Nov-17 02:00N 37°36' W 122°56'4 8.4
2017-Nov-17 01:30N 37°35' W 123°01'5 8.9
2017-Nov-17 01:00N 37°36' W 123°07'4 8.8
2017-Nov-17 00:30N 37°37' W 123°12'8 1.7
2017-Nov-16 19:59N 37°38' W 123°03'4 7.5
2017-Nov-16 19:29N 37°38' W 122°58'4 7.6
2017-Nov-16 19:00N 37°39' W 122°54'4 7.6
2017-Nov-16 18:30N 37°42' W 122°50'4 7.2
2017-Nov-16 17:57N 37°44' W 122°46'3 7.4
2017-Nov-16 17:30N 37°45' W 122°42'3 6.7
2017-Nov-16 17:00N 37°46' W 122°38'3 5.8
2017-Nov-16 16:30N 37°47' W 122°35'3 5.7
2017-Nov-16 16:00N 37°48' W 122°32'3 5.0
2017-Nov-16 15:30N 37°49' W 122°29'2 4.9
2017-Nov-16 15:00N 37°50' W 122°26'3 6.0
2017-Nov-16 14:30N 37°50' W 122°22'1 2.7
2017-Nov-16 14:00N 37°49' W 122°21'0 0.6
2017-Nov-16 13:30N 37°49' W 122°21'1 2.0
2017-Nov-16 13:01N 37°48' W 122°21'1 2.2
2017-Nov-16 12:31N 37°49' W 122°21'1 1.4
2017-Nov-16 12:00N 37°50' W 122°21'0 0.1
2017-Nov-16 11:30N 37°50' W 122°21'0 0.0
2017-Nov-16 11:01N 37°50' W 122°21'0 0.0
2017-Nov-16 10:31N 37°50' W 122°21'0 0.1
2017-Nov-16 10:00N 37°50' W 122°21'1 2.0
2017-Nov-16 09:30N 37°50' W 122°23'2 3.8
2017-Nov-16 09:00N 37°49' W 122°25'3 6.3
2017-Nov-16 08:30N 37°49' W 122°29'3 6.8
2017-Nov-16 08:00N 37°47' W 122°32'4 7.1
2017-Nov-16 07:30N 37°46' W 122°37'4 7.1
2017-Nov-16 07:00N 37°44' W 122°41'5 8.0
2017-Nov-16 06:26N 37°42' W 122°45'4 8.3
2017-Nov-16 06:00N 37°40' W 122°49'4 7.9
2017-Nov-16 05:30N 37°37' W 122°53'4 8.1
2017-Nov-16 05:00N 37°35' W 122°57'4 7.7
2017-Nov-16 04:30N 37°35' W 123°02'4 8.2
2017-Nov-16 04:00N 37°36' W 123°07'4 8.2
2017-Nov-16 03:30N 37°37' W 123°12'3 0.7
2017-Nov-15 22:59N 37°38' W 123°09'3 6.4
2017-Nov-15 22:28N 37°38' W 123°05'3 6.6
2017-Nov-15 22:00N 37°38' W 123°01'3 6.1
2017-Nov-15 21:30N 37°38' W 122°57'3 6.8
2017-Nov-15 21:00N 37°40' W 122°54'4 7.1
2017-Nov-15 20:30N 37°42' W 122°50'3 6.8
2017-Nov-15 20:00N 37°43' W 122°46'3 6.7
2017-Nov-15 19:30N 37°44' W 122°42'3 5.9
2017-Nov-15 19:00N 37°45' W 122°38'3 6.2
2017-Nov-15 18:30N 37°46' W 122°35'3 6.3
2017-Nov-15 17:59N 37°48' W 122°32'3 5.8
2017-Nov-15 17:30N 37°49' W 122°28'2 4.5
2017-Nov-15 17:00N 37°50' W 122°26'2 4.9
2017-Nov-15 16:30N 37°50' W 122°22'2 3.7
2017-Nov-15 16:01N 37°49' W 122°21'1 1.2
2017-Nov-15 15:30N 37°48' W 122°21'0 0.3
2017-Nov-15 15:00N 37°48' W 122°21'1 1.5
2017-Nov-15 14:30N 37°48' W 122°21'3 5.7
2017-Nov-15 14:00N 37°49' W 122°24'4 8.8
2017-Nov-15 13:30N 37°49' W 122°30'4 8.6
2017-Nov-15 13:00N 37°47' W 122°35'4 7.8
2017-Nov-15 12:30N 37°45' W 122°39'4 7.6
2017-Nov-15 11:55N 37°42' W 122°44'3 8.1
2017-Nov-15 11:30N 37°40' W 122°48'4 8.1
2017-Nov-15 11:00N 37°38' W 122°52'4 8.0
2017-Nov-15 10:30N 37°36' W 122°56'4 7.3
2017-Nov-15 10:00N 37°35' W 123°00'3 6.5
2017-Nov-15 09:30N 37°36' W 123°05'4 7.7
2017-Nov-15 09:00N 37°36' W 123°09'4 7.8
2017-Nov-15 08:30N 37°37' W 123°14'5 1.3
2017-Nov-15 04:20N 37°38' W 123°08'2 6.6
2017-Nov-15 03:59N 37°38' W 123°05'3 6.1
2017-Nov-15 03:30N 37°38' W 123°01'3 6.2
2017-Nov-15 03:00N 37°38' W 122°57'3 6.5
2017-Nov-15 02:30N 37°40' W 122°54'3 6.4
2017-Nov-15 02:00N 37°41' W 122°50'3 6.1
2017-Nov-15 01:30N 37°43' W 122°47'3 6.2
2017-Nov-15 01:00N 37°44' W 122°43'3 6.0
2017-Nov-15 00:29N 37°45' W 122°40'3 5.9
2017-Nov-15 00:00N 37°47' W 122°36'3 6.3
2017-Nov-14 23:30N 37°48' W 122°33'4 8.4
2017-Nov-14 23:00N 37°50' W 122°28'4 7.4
2017-Nov-14 22:30N 37°50' W 122°23'3 5.4
2017-Nov-14 22:00N 37°48' W 122°21'0 0.6
2017-Nov-14 21:30N 37°48' W 122°21'1 1.2
2017-Nov-14 21:00N 37°48' W 122°21'2 3.4
2017-Nov-14 20:31N 37°49' W 122°23'3 5.6
2017-Nov-14 20:00N 37°49' W 122°26'2 4.8
2017-Nov-14 19:30N 37°49' W 122°29'2 4.9
2017-Nov-14 19:00N 37°48' W 122°32'3 5.5
2017-Nov-14 18:30N 37°46' W 122°35'4 7.2
2017-Nov-14 18:00N 37°45' W 122°39'5 7.6
2017-Nov-14 17:25N 37°42' W 122°44'3 8.0
2017-Nov-14 17:00N 37°40' W 122°47'4 8.1
2017-Nov-14 16:30N 37°38' W 122°52'4 7.8
2017-Nov-14 16:00N 37°38' W 122°57'4 7.8
2017-Nov-14 15:30N 37°38' W 123°02'4 8.1
2017-Nov-14 15:00N 37°39' W 123°07'4 8.0
2017-Nov-14 14:30N 37°39' W 123°12'4 8.0
2017-Nov-14 14:00N 37°39' W 123°17'8 2.0
2017-Nov-14 09:41N 37°38' W 123°06'2 6.3
2017-Nov-14 09:21N 37°38' W 123°04'2 6.2
2017-Nov-14 08:59N 37°38' W 123°01'3 6.4
2017-Nov-14 08:30N 37°39' W 122°57'3 6.5
2017-Nov-14 08:00N 37°41' W 122°53'6 6.4
2017-Nov-14 07:04N 37°43' W 122°47'3 5.9
2017-Nov-14 06:34N 37°44' W 122°43'0 5.9
2017-Nov-14 06:30N 37°44' W 122°42'3 6.0
2017-Nov-14 05:59N 37°45' W 122°39'3 5.8
2017-Nov-14 05:30N 37°46' W 122°36'3 5.9
2017-Nov-14 05:00N 37°48' W 122°32'3 5.8
2017-Nov-14 04:30N 37°49' W 122°29'2 4.6
2017-Nov-14 04:00N 37°50' W 122°26'2 4.6
2017-Nov-14 03:30N 37°49' W 122°24'2 4.6
2017-Nov-14 03:00N 37°48' W 122°21'0 0.7
2017-Nov-14 02:30N 37°48' W 122°21'1 1.0
2017-Nov-14 02:00N 37°49' W 122°21'1 1.3
2017-Nov-14 01:31N 37°49' W 122°21'2 3.0
2017-Nov-14 01:00N 37°50' W 122°23'4 8.6
2017-Nov-14 00:30N 37°49' W 122°28'4 8.6
2017-Nov-14 00:00N 37°47' W 122°33'4 8.4
2017-Nov-13 23:30N 37°46' W 122°38'5 7.9
2017-Nov-13 22:50N 37°44' W 122°44'3 8.6
2017-Nov-13 22:30N 37°43' W 122°48'4 8.9
2017-Nov-13 22:00N 37°41' W 122°53'28 1.4
2017-Nov-13 02:00N 37°49' W 122°19'0 0.0
2017-Nov-13 01:30N 37°49' W 122°19'0 0.0
2017-Nov-13 01:00N 37°49' W 122°19'0 0.0
2017-Nov-13 00:30N 37°49' W 122°19'0 0.0
2017-Nov-13 00:00N 37°49' W 122°19'0 0.0
2017-Nov-12 23:30N 37°49' W 122°19'0 0.0
2017-Nov-12 23:00N 37°49' W 122°19'0 0.5
2017-Nov-12 22:30N 37°49' W 122°19'0 0.0
2017-Nov-12 22:00N 37°49' W 122°19'2 3.5
2017-Nov-12 21:30N 37°48' W 122°21'0 0.9
2017-Nov-12 21:00N 37°49' W 122°20'1 2.1
2017-Nov-12 20:30N 37°49' W 122°19'2 4.1
2017-Nov-12 20:00N 37°50' W 122°21'0 0.1
2017-Nov-12 19:30N 37°50' W 122°21'0 0.0
2017-Nov-12 19:01N 37°50' W 122°21'0 0.1
2017-Nov-12 18:30N 37°50' W 122°21'0 0.0
2017-Nov-12 18:01N 37°50' W 122°21'0 0.1
2017-Nov-12 17:30N 37°50' W 122°21'0 0.0
2017-Nov-12 17:00N 37°50' W 122°21'0 0.0
2017-Nov-12 16:30N 37°50' W 122°21'0 0.1
2017-Nov-12 16:00N 37°50' W 122°21'1 2.0
2017-Nov-12 15:31N 37°50' W 122°23'2 5.0
2017-Nov-12 15:00N 37°49' W 122°25'4 8.7
2017-Nov-12 14:30N 37°48' W 122°31'4 8.4
2017-Nov-12 14:00N 37°46' W 122°35'4 8.2
2017-Nov-12 13:30N 37°45' W 122°40'4 7.7
2017-Nov-12 12:56N 37°44' W 122°46'4 8.4
2017-Nov-12 12:30N 37°42' W 122°50'4 8.1
2017-Nov-12 12:00N 37°40' W 122°54'4 7.9
2017-Nov-12 11:30N 37°39' W 122°59'4 7.8
2017-Nov-12 11:00N 37°38' W 123°04'4 7.9
2017-Nov-12 10:30N 37°39' W 123°09'4 8.3
2017-Nov-12 10:00N 37°39' W 123°14'4 8.0
2017-Nov-12 09:30N 37°39' W 123°19'4 8.0
2017-Nov-12 09:00N 37°39' W 123°24'13 3.9
2017-Nov-12 05:38N 37°39' W 123°07'3 6.7
2017-Nov-12 05:10N 37°38' W 123°03'1 6.8
2017-Nov-12 04:57N 37°38' W 123°02'3 6.8
2017-Nov-12 04:30N 37°39' W 122°58'3 6.9
2017-Nov-12 04:00N 37°40' W 122°54'3 6.8
2017-Nov-12 03:30N 37°42' W 122°50'3 6.7
2017-Nov-12 03:00N 37°44' W 122°47'5 6.5
2017-Nov-12 02:18N 37°46' W 122°41'2 6.0
2017-Nov-12 02:00N 37°46' W 122°39'3 5.8
2017-Nov-12 01:30N 37°47' W 122°36'3 5.3
2017-Nov-12 01:00N 37°48' W 122°33'2 4.8
2017-Nov-12 00:30N 37°49' W 122°30'2 4.6
2017-Nov-12 00:00N 37°50' W 122°27'2 4.9
2017-Nov-11 23:30N 37°50' W 122°24'2 4.2
2017-Nov-11 23:00N 37°49' W 122°22'1 2.7
2017-Nov-11 22:31N 37°49' W 122°20'0 0.2
2017-Nov-11 22:01N 37°49' W 122°20'1 2.9
2017-Nov-11 21:30N 37°50' W 122°21'3 6.7
2017-Nov-11 21:00N 37°46' W 122°22'2 3.0
2017-Nov-11 20:30N 37°45' W 122°23'0 0.1
2017-Nov-11 20:00N 37°45' W 122°23'2 4.3
2017-Nov-11 19:30N 37°47' W 122°21'3 5.2
2017-Nov-11 19:00N 37°48' W 122°18'2 4.0
2017-Nov-11 18:31N 37°47' W 122°16'1 1.7
2017-Nov-11 18:01N 37°48' W 122°17'3 7.0
2017-Nov-11 17:30N 37°48' W 122°21'2 3.2
2017-Nov-11 17:01N 37°50' W 122°21'0 0.0
2017-Nov-11 16:30N 37°50' W 122°21'0 0.1
2017-Nov-11 16:01N 37°50' W 122°21'0 0.0
2017-Nov-11 15:30N 37°50' W 122°21'0 0.0
2017-Nov-11 15:00N 37°50' W 122°21'0 0.1
2017-Nov-11 14:30N 37°50' W 122°21'0 0.0
2017-Nov-11 14:00N 37°50' W 122°21'0 0.0
2017-Nov-11 13:30N 37°50' W 122°21'0 0.0
2017-Nov-11 13:00N 37°50' W 122°21'0 0.0
2017-Nov-11 12:30N 37°50' W 122°21'0 0.0
2017-Nov-11 12:00N 37°50' W 122°21'0 0.1
2017-Nov-11 11:30N 37°50' W 122°21'0 0.0
2017-Nov-11 11:01N 37°50' W 122°21'0 0.1
2017-Nov-11 10:30N 37°50' W 122°21'0 0.0
2017-Nov-11 10:00N 37°50' W 122°21'0 0.0
2017-Nov-11 09:31N 37°50' W 122°21'0 0.0
2017-Nov-11 09:00N 37°50' W 122°21'0 0.1
2017-Nov-11 08:31N 37°50' W 122°21'0 0.0
2017-Nov-11 08:00N 37°50' W 122°21'0 0.1
2017-Nov-11 07:30N 37°50' W 122°21'0 0.7
2017-Nov-11 07:01N 37°50' W 122°22'0 0.4
2017-Nov-11 06:30N 37°50' W 122°22'0 1.0
2017-Nov-11 06:01N 37°50' W 122°23'1 2.9
2017-Nov-11 05:30N 37°49' W 122°24'2 4.8
2017-Nov-11 05:00N 37°49' W 122°27'2 4.7
2017-Nov-11 04:30N 37°48' W 122°30'3 5.7
2017-Nov-11 04:00N 37°47' W 122°33'3 6.3
2017-Nov-11 03:30N 37°46' W 122°37'4 7.9
2017-Nov-11 03:00N 37°44' W 122°41'4 7.6
2017-Nov-11 02:30N 37°43' W 122°46'4 8.0
2017-Nov-11 02:00N 37°42' W 122°51'4 7.8
2017-Nov-11 01:30N 37°40' W 122°55'4 7.8
2017-Nov-11 01:00N 37°38' W 122°59'4 8.4
2017-Nov-11 00:30N 37°38' W 123°05'4 8.6
2017-Nov-11 00:00N 37°39' W 123°10'8 8.6
2017-Nov-10 23:06N 37°39' W 123°20'3 8.4
2017-Nov-10 22:47N 37°40' W 123°23'16 4.2
2017-Nov-10 19:02N 37°39' W 123°03'0 7.3
2017-Nov-10 19:00N 37°38' W 123°03'4 7.4
2017-Nov-10 18:30N 37°39' W 122°58'4 7.3
2017-Nov-10 18:00N 37°40' W 122°54'5 7.1
2017-Nov-10 17:19N 37°43' W 122°49'2 7.2
2017-Nov-10 17:00N 37°44' W 122°46'4 7.2
2017-Nov-10 16:27N 37°45' W 122°42'3 6.8
2017-Nov-10 16:00N 37°46' W 122°38'4 7.5
2017-Nov-10 15:30N 37°47' W 122°34'4 8.2
2017-Nov-10 15:00N 37°49' W 122°29'3 6.6
2017-Nov-10 14:30N 37°50' W 122°25'3 6.2
2017-Nov-10 14:00N 37°48' W 122°22'1 1.0
2017-Nov-10 13:30N 37°48' W 122°21'1 1.3
2017-Nov-10 13:00N 37°48' W 122°22'4 7.8
2017-Nov-10 12:30N 37°49' W 122°26'5 9.3
2017-Nov-10 12:00N 37°48' W 122°32'4 8.9
2017-Nov-10 11:30N 37°46' W 122°37'6 8.5
2017-Nov-10 10:47N 37°44' W 122°45'2 8.2
2017-Nov-10 10:30N 37°43' W 122°47'4 8.6
2017-Nov-10 10:00N 37°41' W 122°52'4 8.4
2017-Nov-10 09:30N 37°39' W 122°57'4 8.2
2017-Nov-10 09:00N 37°38' W 123°02'4 8.7
2017-Nov-10 08:30N 37°38' W 123°07'5 9.0
2017-Nov-10 08:00N 37°38' W 123°13'5 8.7
2017-Nov-10 07:24N 37°39' W 123°20'10 3.0
2017-Nov-10 03:56N 37°38' W 123°07'3 7.0
2017-Nov-10 03:28N 37°38' W 123°03'3 7.3
2017-Nov-10 03:00N 37°38' W 122°58'4 7.5
2017-Nov-10 02:30N 37°40' W 122°54'4 7.3
2017-Nov-10 02:00N 37°42' W 122°50'4 7.1
2017-Nov-10 01:30N 37°44' W 122°46'3 6.8
2017-Nov-10 00:59N 37°45' W 122°42'3 7.1
2017-Nov-10 00:30N 37°46' W 122°38'4 7.4
2017-Nov-10 00:00N 37°47' W 122°34'4 7.4
2017-Nov-09 23:30N 37°49' W 122°30'3 5.7
2017-Nov-09 23:00N 37°50' W 122°26'3 6.3
2017-Nov-09 22:30N 37°48' W 122°23'2 3.3
2017-Nov-09 22:00N 37°48' W 122°21'2 3.4
2017-Nov-09 21:30N 37°49' W 122°19'0 0.6
2017-Nov-09 21:00N 37°49' W 122°19'0 0.0
2017-Nov-09 20:30N 37°49' W 122°19'0 0.0
2017-Nov-09 20:01N 37°49' W 122°19'0 0.0
2017-Nov-09 19:30N 37°49' W 122°19'  
Track history (hours):
 
Tides and Currents Weather Stations Pressure Air Temp Water Temp Dewpoint Dewpoint Depression Visibility Wind Speed Wind Dir Waves Ship Positions

Pacific Freedom

Owner: Atlas Marine Towing, LLC, San Diego, CA. More information available from US FCC via Universal Licensing System and Coast Guard Vessel Documentation Center.

Last reported at 2017-Nov-19 19:30 UTC. Time now 2017-Nov-19 19:52 UTC.
Position N 37°43' W 122°45'.

Length 35 m; draft 4 m.

Type: Tug. MMSI: 367639830.

Date/timePositionNaut miles runAvg speedWind from/ knotsBaromVisibWave heightAir tempDewpointWater temp
2017-Nov-19 19:30N 37°43' W 122°45'4 7.6
2017-Nov-19 19:00N 37°45' W 122°41'4 7.8
2017-Nov-19 18:30N 37°46' W 122°36'3 6.9
2017-Nov-19 18:00N 37°48' W 122°33'3 5.7
2017-Nov-19 17:30N 37°49' W 122°30'3 5.3
2017-Nov-19 17:00N 37°50' W 122°26'3 6.3
2017-Nov-19 16:30N 37°50' W 122°22'2 4.0
2017-Nov-19 16:00N 37°49' W 122°21'0 0.7
2017-Nov-19 15:31N 37°48' W 122°21'1 1.1
2017-Nov-19 15:01N 37°49' W 122°21'0 0.7
2017-Nov-19 14:30N 37°49' W 122°21'1 1.8
2017-Nov-19 14:00N 37°48' W 122°21'0 0.2
2017-Nov-19 13:30N 37°48' W 122°21'2 4.7
2017-Nov-19 13:00N 37°49' W 122°24'3 6.4
2017-Nov-19 12:30N 37°49' W 122°28'3 5.2
2017-Nov-19 12:00N 37°48' W 122°31'3 6.3
2017-Nov-19 11:30N 37°47' W 122°35'4 7.1
2017-Nov-19 11:00N 37°45' W 122°39'4 7.2
2017-Nov-19 10:29N 37°43' W 122°43'4 8.1
2017-Nov-19 10:00N 37°41' W 122°47'4 8.0
2017-Nov-19 09:30N 37°39' W 122°51'4 7.9
2017-Nov-19 09:00N 37°37' W 122°56'4 8.3
2017-Nov-19 08:30N 37°37' W 123°01'4 8.2
2017-Nov-19 08:00N 37°38' W 123°06'4 7.8
2017-Nov-19 07:30N 37°38' W 123°11'4 7.6
2017-Nov-19 07:00N 37°38' W 123°16'4 7.7
2017-Nov-19 06:30N 37°39' W 123°21'4 7.7
2017-Nov-19 06:00N 37°39' W 123°25'3 6.0
2017-Nov-19 05:30N 37°39' W 123°29'6 6.7
2017-Nov-19 04:39N 37°39' W 123°22'1 6.8
2017-Nov-19 04:29N 37°39' W 123°20'8 6.5
2017-Nov-19 03:17N 37°38' W 123°10'2 6.4
2017-Nov-19 03:00N 37°38' W 123°08'3 6.4
2017-Nov-19 02:30N 37°38' W 123°04'3 6.4
2017-Nov-19 02:00N 37°37' W 123°00'3 6.6
2017-Nov-19 01:30N 37°39' W 122°56'3 6.9
2017-Nov-19 01:00N 37°40' W 122°53'3 6.9
2017-Nov-19 00:30N 37°42' W 122°49'4 6.7
2017-Nov-18 23:57N 37°44' W 122°45'3 6.4
2017-Nov-18 23:27N 37°46' W 122°41'3 6.8
2017-Nov-18 23:00N 37°46' W 122°38'4 8.1
2017-Nov-18 22:30N 37°48' W 122°33'5 9.1
2017-Nov-18 22:00N 37°50' W 122°28'4 7.6
2017-Nov-18 21:30N 37°49' W 122°23'2 3.5
2017-Nov-18 21:00N 37°48' W 122°21'2 3.3
2017-Nov-18 20:30N 37°50' W 122°21'0 0.1
2017-Nov-18 20:00N 37°50' W 122°21'0 0.0
2017-Nov-18 19:30N 37°50' W 122°21'0 0.0
2017-Nov-18 19:00N 37°50' W 122°21'0 0.4
2017-Nov-18 18:30N 37°50' W 122°21'2 4.7
2017-Nov-18 18:00N 37°49' W 122°18'0 0.0
2017-Nov-18 17:31N 37°49' W 122°18'0 0.0
2017-Nov-18 17:01N 37°49' W 122°18'0 0.0
2017-Nov-18 16:30N 37°49' W 122°18'0 0.0
2017-Nov-18 16:00N 37°49' W 122°18'0 0.1
2017-Nov-18 15:30N 37°49' W 122°19'0 0.0
2017-Nov-18 15:00N 37°49' W 122°19'0 0.1
2017-Nov-18 14:31N 37°49' W 122°18'0 0.1
2017-Nov-18 14:01N 37°49' W 122°19'0 0.1
2017-Nov-18 13:31N 37°49' W 122°18'0 0.0
2017-Nov-18 13:01N 37°49' W 122°18'0 0.1
2017-Nov-18 12:31N 37°49' W 122°19'0 0.5
2017-Nov-18 12:01N 37°49' W 122°19'0 0.0
2017-Nov-18 11:30N 37°49' W 122°19'0 0.0
2017-Nov-18 11:00N 37°49' W 122°19'0 0.1
2017-Nov-18 10:30N 37°49' W 122°19'2 4.2
2017-Nov-18 10:00N 37°50' W 122°21'1 2.3
2017-Nov-18 09:31N 37°50' W 122°23'2 4.9
2017-Nov-18 09:00N 37°49' W 122°26'3 6.0
2017-Nov-18 08:30N 37°49' W 122°29'5 9.2
2017-Nov-18 08:00N 37°47' W 122°34'4 8.8
2017-Nov-18 07:30N 37°45' W 122°39'4 8.1
2017-Nov-18 06:58N 37°42' W 122°44'4 8.3
2017-Nov-18 06:30N 37°40' W 122°48'4 8.5
2017-Nov-18 06:00N 37°38' W 122°53'4 7.9
2017-Nov-18 05:30N 37°37' W 122°57'4 8.7
2017-Nov-18 05:00N 37°37' W 123°03'4 8.8
2017-Nov-18 04:30N 37°38' W 123°08'4 8.8
2017-Nov-18 04:00N 37°38' W 123°14'6 1.4
2017-Nov-18 00:05N 37°38' W 123°07'1 7.1
2017-Nov-17 23:59N 37°38' W 123°06'4 7.5
2017-Nov-17 23:30N 37°38' W 123°02'4 7.3
2017-Nov-17 23:00N 37°38' W 122°57'11 7.8
2017-Nov-17 21:33N 37°44' W 122°44'1 8.0
2017-Nov-17 21:25N 37°44' W 122°43'3 7.3
2017-Nov-17 21:00N 37°45' W 122°39'4 7.9
2017-Nov-17 20:30N 37°46' W 122°35'4 8.2
2017-Nov-17 20:00N 37°49' W 122°30'4 7.5
2017-Nov-17 19:30N 37°50' W 122°26'4 7.1
2017-Nov-17 19:00N 37°48' W 122°22'1 2.4
2017-Nov-17 18:31N 37°48' W 122°21'1 1.0
2017-Nov-17 18:00N 37°49' W 122°21'0 0.4
2017-Nov-17 17:30N 37°49' W 122°21'1 2.0
2017-Nov-17 17:01N 37°50' W 122°21'0 0.0
2017-Nov-17 16:30N 37°50' W 122°21'0 0.0
2017-Nov-17 16:00N 37°50' W 122°21'0 0.0
2017-Nov-17 15:31N 37°50' W 122°21'0 0.0
2017-Nov-17 15:00N 37°50' W 122°21'0 0.0
2017-Nov-17 14:30N 37°50' W 122°21'0 0.0
2017-Nov-17 14:00N 37°50' W 122°21'0 0.0
2017-Nov-17 13:30N 37°50' W 122°21'0 0.0
2017-Nov-17 13:00N 37°50' W 122°21'0 0.1
2017-Nov-17 12:30N 37°50' W 122°21'0 0.0
2017-Nov-17 12:01N 37°50' W 122°21'0 0.0
2017-Nov-17 11:30N 37°50' W 122°21'0 0.0
2017-Nov-17 11:01N 37°50' W 122°21'0 0.0
2017-Nov-17 10:30N 37°50' W 122°21'0 0.0
2017-Nov-17 10:01N 37°50' W 122°21'0 0.0
2017-Nov-17 09:30N 37°50' W 122°21'0 0.0
2017-Nov-17 09:00N 37°50' W 122°21'0 0.1
2017-Nov-17 08:30N 37°50' W 122°21'2 3.3
2017-Nov-17 08:01N 37°48' W 122°21'1 1.3
2017-Nov-17 07:31N 37°49' W 122°21'1 2.6
2017-Nov-17 07:00N 37°50' W 122°22'0 0.5
2017-Nov-17 06:30N 37°50' W 122°22'0 0.4
2017-Nov-17 06:00N 37°50' W 122°22'1 1.9
2017-Nov-17 05:30N 37°50' W 122°23'3 6.9
2017-Nov-17 05:00N 37°49' W 122°27'510.4
2017-Nov-17 04:30N 37°47' W 122°33'4 8.6
2017-Nov-17 04:00N 37°45' W 122°38'4 7.3
2017-Nov-17 03:30N 37°43' W 122°42'5 9.0
2017-Nov-17 02:59N 37°41' W 122°47'4 8.9
2017-Nov-17 02:30N 37°38' W 122°52'4 8.5
2017-Nov-17 02:00N 37°36' W 122°56'4 8.4
2017-Nov-17 01:30N 37°35' W 123°01'5 8.9
2017-Nov-17 01:00N 37°36' W 123°07'4 8.8
2017-Nov-17 00:30N 37°37' W 123°12'8 1.7
2017-Nov-16 19:59N 37°38' W 123°03'4 7.5
2017-Nov-16 19:29N 37°38' W 122°58'4 7.6
2017-Nov-16 19:00N 37°39' W 122°54'4 7.6
2017-Nov-16 18:30N 37°42' W 122°50'4 7.2
2017-Nov-16 17:57N 37°44' W 122°46'3 7.4
2017-Nov-16 17:30N 37°45' W 122°42'3 6.7
2017-Nov-16 17:00N 37°46' W 122°38'3 5.8
2017-Nov-16 16:30N 37°47' W 122°35'3 5.7
2017-Nov-16 16:00N 37°48' W 122°32'3 5.0
2017-Nov-16 15:30N 37°49' W 122°29'2 4.9
2017-Nov-16 15:00N 37°50' W 122°26'3 6.0
2017-Nov-16 14:30N 37°50' W 122°22'1 2.7
2017-Nov-16 14:00N 37°49' W 122°21'0 0.6
2017-Nov-16 13:30N 37°49' W 122°21'1 2.0
2017-Nov-16 13:01N 37°48' W 122°21'1 2.2
2017-Nov-16 12:31N 37°49' W 122°21'1 1.4
2017-Nov-16 12:00N 37°50' W 122°21'0 0.1
2017-Nov-16 11:30N 37°50' W 122°21'0 0.0
2017-Nov-16 11:01N 37°50' W 122°21'0 0.0
2017-Nov-16 10:31N 37°50' W 122°21'0 0.1
2017-Nov-16 10:00N 37°50' W 122°21'1 2.0
2017-Nov-16 09:30N 37°50' W 122°23'2 3.8
2017-Nov-16 09:00N 37°49' W 122°25'3 6.3
2017-Nov-16 08:30N 37°49' W 122°29'3 6.8
2017-Nov-16 08:00N 37°47' W 122°32'4 7.1
2017-Nov-16 07:30N 37°46' W 122°37'4 7.1
2017-Nov-16 07:00N 37°44' W 122°41'5 8.0
2017-Nov-16 06:26N 37°42' W 122°45'4 8.3
2017-Nov-16 06:00N 37°40' W 122°49'4 7.9
2017-Nov-16 05:30N 37°37' W 122°53'4 8.1
2017-Nov-16 05:00N 37°35' W 122°57'4 7.7
2017-Nov-16 04:30N 37°35' W 123°02'4 8.2
2017-Nov-16 04:00N 37°36' W 123°07'4 8.2
2017-Nov-16 03:30N 37°37' W 123°12'3 0.7
2017-Nov-15 22:59N 37°38' W 123°09'3 6.4
2017-Nov-15 22:28N 37°38' W 123°05'3 6.6
2017-Nov-15 22:00N 37°38' W 123°01'3 6.1
2017-Nov-15 21:30N 37°38' W 122°57'3 6.8
2017-Nov-15 21:00N 37°40' W 122°54'4 7.1
2017-Nov-15 20:30N 37°42' W 122°50'3 6.8
2017-Nov-15 20:00N 37°43' W 122°46'3 6.7
2017-Nov-15 19:30N 37°44' W 122°42'3 5.9
2017-Nov-15 19:00N 37°45' W 122°38'3 6.2
2017-Nov-15 18:30N 37°46' W 122°35'3 6.3
2017-Nov-15 17:59N 37°48' W 122°32'3 5.8
2017-Nov-15 17:30N 37°49' W 122°28'2 4.5
2017-Nov-15 17:00N 37°50' W 122°26'2 4.9
2017-Nov-15 16:30N 37°50' W 122°22'2 3.7
2017-Nov-15 16:01N 37°49' W 122°21'1 1.2
2017-Nov-15 15:30N 37°48' W 122°21'0 0.3
2017-Nov-15 15:00N 37°48' W 122°21'1 1.5
2017-Nov-15 14:30N 37°48' W 122°21'3 5.7
2017-Nov-15 14:00N 37°49' W 122°24'4 8.8
2017-Nov-15 13:30N 37°49' W 122°30'4 8.6
2017-Nov-15 13:00N 37°47' W 122°35'4 7.8
2017-Nov-15 12:30N 37°45' W 122°39'4 7.6
2017-Nov-15 11:55N 37°42' W 122°44'3 8.1
2017-Nov-15 11:30N 37°40' W 122°48'4 8.1
2017-Nov-15 11:00N 37°38' W 122°52'4 8.0
2017-Nov-15 10:30N 37°36' W 122°56'4 7.3
2017-Nov-15 10:00N 37°35' W 123°00'3 6.5
2017-Nov-15 09:30N 37°36' W 123°05'4 7.7
2017-Nov-15 09:00N 37°36' W 123°09'4 7.8
2017-Nov-15 08:30N 37°37' W 123°14'5 1.3
2017-Nov-15 04:20N 37°38' W 123°08'2 6.6
2017-Nov-15 03:59N 37°38' W 123°05'3 6.1
2017-Nov-15 03:30N 37°38' W 123°01'3 6.2
2017-Nov-15 03:00N 37°38' W 122°57'3 6.5
2017-Nov-15 02:30N 37°40' W 122°54'3 6.4
2017-Nov-15 02:00N 37°41' W 122°50'3 6.1
2017-Nov-15 01:30N 37°43' W 122°47'3 6.2
2017-Nov-15 01:00N 37°44' W 122°43'3 6.0
2017-Nov-15 00:29N 37°45' W 122°40'3 5.9
2017-Nov-15 00:00N 37°47' W 122°36'3 6.3
2017-Nov-14 23:30N 37°48' W 122°33'4 8.4
2017-Nov-14 23:00N 37°50' W 122°28'4 7.4
2017-Nov-14 22:30N 37°50' W 122°23'3 5.4
2017-Nov-14 22:00N 37°48' W 122°21'0 0.6
2017-Nov-14 21:30N 37°48' W 122°21'1 1.2
2017-Nov-14 21:00N 37°48' W 122°21'2 3.4
2017-Nov-14 20:31N 37°49' W 122°23'3 5.6
2017-Nov-14 20:00N 37°49' W 122°26'2 4.8
2017-Nov-14 19:30N 37°49' W 122°29'2 4.9
2017-Nov-14 19:00N 37°48' W 122°32'3 5.5
2017-Nov-14 18:30N 37°46' W 122°35'4 7.2
2017-Nov-14 18:00N 37°45' W 122°39'5 7.6
2017-Nov-14 17:25N 37°42' W 122°44'3 8.0
2017-Nov-14 17:00N 37°40' W 122°47'4 8.1
2017-Nov-14 16:30N 37°38' W 122°52'4 7.8
2017-Nov-14 16:00N 37°38' W 122°57'4 7.8
2017-Nov-14 15:30N 37°38' W 123°02'4 8.1
2017-Nov-14 15:00N 37°39' W 123°07'4 8.0
2017-Nov-14 14:30N 37°39' W 123°12'4 8.0
2017-Nov-14 14:00N 37°39' W 123°17'8 2.0
2017-Nov-14 09:41N 37°38' W 123°06'2 6.3
2017-Nov-14 09:21N 37°38' W 123°04'2 6.2
2017-Nov-14 08:59N 37°38' W 123°01'3 6.4
2017-Nov-14 08:30N 37°39' W 122°57'3 6.5
2017-Nov-14 08:00N 37°41' W 122°53'6 6.4
2017-Nov-14 07:04N 37°43' W 122°47'3 5.9
2017-Nov-14 06:34N 37°44' W 122°43'0 5.9
2017-Nov-14 06:30N 37°44' W 122°42'3 6.0
2017-Nov-14 05:59N 37°45' W 122°39'3 5.8
2017-Nov-14 05:30N 37°46' W 122°36'3 5.9
2017-Nov-14 05:00N 37°48' W 122°32'3 5.8
2017-Nov-14 04:30N 37°49' W 122°29'2 4.6
2017-Nov-14 04:00N 37°50' W 122°26'2 4.6
2017-Nov-14 03:30N 37°49' W 122°24'2 4.6
2017-Nov-14 03:00N 37°48' W 122°21'0 0.7
2017-Nov-14 02:30N 37°48' W 122°21'1 1.0
2017-Nov-14 02:00N 37°49' W 122°21'1 1.3
2017-Nov-14 01:31N 37°49' W 122°21'2 3.0
2017-Nov-14 01:00N 37°50' W 122°23'4 8.6
2017-Nov-14 00:30N 37°49' W 122°28'4 8.6
2017-Nov-14 00:00N 37°47' W 122°33'4 8.4
2017-Nov-13 23:30N 37°46' W 122°38'5 7.9
2017-Nov-13 22:50N 37°44' W 122°44'3 8.6
2017-Nov-13 22:30N 37°43' W 122°48'4 8.9
2017-Nov-13 22:00N 37°41' W 122°53'28 1.4
2017-Nov-13 02:00N 37°49' W 122°19'0 0.0
2017-Nov-13 01:30N 37°49' W 122°19'0 0.0
2017-Nov-13 01:00N 37°49' W 122°19'0 0.0
2017-Nov-13 00:30N 37°49' W 122°19'0 0.0
2017-Nov-13 00:00N 37°49' W 122°19'0 0.0
2017-Nov-12 23:30N 37°49' W 122°19'0 0.0
2017-Nov-12 23:00N 37°49' W 122°19'0 0.5
2017-Nov-12 22:30N 37°49' W 122°19'0 0.0
2017-Nov-12 22:00N 37°49' W 122°19'2 3.5
2017-Nov-12 21:30N 37°48' W 122°21'0 0.9
2017-Nov-12 21:00N 37°49' W 122°20'1 2.1
2017-Nov-12 20:30N 37°49' W 122°19'2 4.1
2017-Nov-12 20:00N 37°50' W 122°21'0 0.1
2017-Nov-12 19:30N 37°50' W 122°21'0 0.0
2017-Nov-12 19:01N 37°50' W 122°21'0 0.1
2017-Nov-12 18:30N 37°50' W 122°21'0 0.0
2017-Nov-12 18:01N 37°50' W 122°21'0 0.1
2017-Nov-12 17:30N 37°50' W 122°21'0 0.0
2017-Nov-12 17:00N 37°50' W 122°21'0 0.0
2017-Nov-12 16:30N 37°50' W 122°21'0 0.1
2017-Nov-12 16:00N 37°50' W 122°21'1 2.0
2017-Nov-12 15:31N 37°50' W 122°23'2 5.0
2017-Nov-12 15:00N 37°49' W 122°25'4 8.7
2017-Nov-12 14:30N 37°48' W 122°31'4 8.4
2017-Nov-12 14:00N 37°46' W 122°35'4 8.2
2017-Nov-12 13:30N 37°45' W 122°40'4 7.7
2017-Nov-12 12:56N 37°44' W 122°46'4 8.4
2017-Nov-12 12:30N 37°42' W 122°50'4 8.1
2017-Nov-12 12:00N 37°40' W 122°54'4 7.9
2017-Nov-12 11:30N 37°39' W 122°59'4 7.8
2017-Nov-12 11:00N 37°38' W 123°04'4 7.9
2017-Nov-12 10:30N 37°39' W 123°09'4 8.3
2017-Nov-12 10:00N 37°39' W 123°14'4 8.0
2017-Nov-12 09:30N 37°39' W 123°19'4 8.0
2017-Nov-12 09:00N 37°39' W 123°24'13 3.9
2017-Nov-12 05:38N 37°39' W 123°07'3 6.7
2017-Nov-12 05:10N 37°38' W 123°03'1 6.8
2017-Nov-12 04:57N 37°38' W 123°02'3 6.8
2017-Nov-12 04:30N 37°39' W 122°58'3 6.9
2017-Nov-12 04:00N 37°40' W 122°54'3 6.8
2017-Nov-12 03:30N 37°42' W 122°50'3 6.7
2017-Nov-12 03:00N 37°44' W 122°47'5 6.5
2017-Nov-12 02:18N 37°46' W 122°41'2 6.0
2017-Nov-12 02:00N 37°46' W 122°39'3 5.8
2017-Nov-12 01:30N 37°47' W 122°36'3 5.3
2017-Nov-12 01:00N 37°48' W 122°33'2 4.8
2017-Nov-12 00:30N 37°49' W 122°30'2 4.6
2017-Nov-12 00:00N 37°50' W 122°27'2 4.9
2017-Nov-11 23:30N 37°50' W 122°24'2 4.2
2017-Nov-11 23:00N 37°49' W 122°22'1 2.7
2017-Nov-11 22:31N 37°49' W 122°20'0 0.2
2017-Nov-11 22:01N 37°49' W 122°20'1 2.9
2017-Nov-11 21:30N 37°50' W 122°21'3 6.7
2017-Nov-11 21:00N 37°46' W 122°22'2 3.0
2017-Nov-11 20:30N 37°45' W 122°23'0 0.1
2017-Nov-11 20:00N 37°45' W 122°23'2 4.3
2017-Nov-11 19:30N 37°47' W 122°21'3 5.2
2017-Nov-11 19:00N 37°48' W 122°18'2 4.0
2017-Nov-11 18:31N 37°47' W 122°16'1 1.7
2017-Nov-11 18:01N 37°48' W 122°17'3 7.0
2017-Nov-11 17:30N 37°48' W 122°21'2 3.2
2017-Nov-11 17:01N 37°50' W 122°21'0 0.0
2017-Nov-11 16:30N 37°50' W 122°21'0 0.1
2017-Nov-11 16:01N 37°50' W 122°21'0 0.0
2017-Nov-11 15:30N 37°50' W 122°21'0 0.0
2017-Nov-11 15:00N 37°50' W 122°21'0 0.1
2017-Nov-11 14:30N 37°50' W 122°21'0 0.0
2017-Nov-11 14:00N 37°50' W 122°21'0 0.0
2017-Nov-11 13:30N 37°50' W 122°21'0 0.0
2017-Nov-11 13:00N 37°50' W 122°21'0 0.0
2017-Nov-11 12:30N 37°50' W 122°21'0 0.0
2017-Nov-11 12:00N 37°50' W 122°21'0 0.1
2017-Nov-11 11:30N 37°50' W 122°21'0 0.0
2017-Nov-11 11:01N 37°50' W 122°21'0 0.1
2017-Nov-11 10:30N 37°50' W 122°21'0 0.0
2017-Nov-11 10:00N 37°50' W 122°21'0 0.0
2017-Nov-11 09:31N 37°50' W 122°21'0 0.0
2017-Nov-11 09:00N 37°50' W 122°21'0 0.1
2017-Nov-11 08:31N 37°50' W 122°21'0 0.0
2017-Nov-11 08:00N 37°50' W 122°21'0 0.1
2017-Nov-11 07:30N 37°50' W 122°21'0 0.7
2017-Nov-11 07:01N 37°50' W 122°22'0 0.4
2017-Nov-11 06:30N 37°50' W 122°22'0 1.0
2017-Nov-11 06:01N 37°50' W 122°23'1 2.9
2017-Nov-11 05:30N 37°49' W 122°24'2 4.8
2017-Nov-11 05:00N 37°49' W 122°27'2 4.7
2017-Nov-11 04:30N 37°48' W 122°30'3 5.7
2017-Nov-11 04:00N 37°47' W 122°33'3 6.3
2017-Nov-11 03:30N 37°46' W 122°37'4 7.9
2017-Nov-11 03:00N 37°44' W 122°41'4 7.6
2017-Nov-11 02:30N 37°43' W 122°46'4 8.0
2017-Nov-11 02:00N 37°42' W 122°51'4 7.8
2017-Nov-11 01:30N 37°40' W 122°55'4 7.8
2017-Nov-11 01:00N 37°38' W 122°59'4 8.4
2017-Nov-11 00:30N 37°38' W 123°05'4 8.6
2017-Nov-11 00:00N 37°39' W 123°10'8 8.6
2017-Nov-10 23:06N 37°39' W 123°20'3 8.4
2017-Nov-10 22:47N 37°40' W 123°23'16 4.2
2017-Nov-10 19:02N 37°39' W 123°03'0 7.3
2017-Nov-10 19:00N 37°38' W 123°03'4 7.4
2017-Nov-10 18:30N 37°39' W 122°58'4 7.3
2017-Nov-10 18:00N 37°40' W 122°54'5 7.1
2017-Nov-10 17:19N 37°43' W 122°49'2 7.2
2017-Nov-10 17:00N 37°44' W 122°46'4 7.2
2017-Nov-10 16:27N 37°45' W 122°42'3 6.8
2017-Nov-10 16:00N 37°46' W 122°38'4 7.5
2017-Nov-10 15:30N 37°47' W 122°34'4 8.2
2017-Nov-10 15:00N 37°49' W 122°29'3 6.6
2017-Nov-10 14:30N 37°50' W 122°25'3 6.2
2017-Nov-10 14:00N 37°48' W 122°22'1 1.0
2017-Nov-10 13:30N 37°48' W 122°21'1 1.3
2017-Nov-10 13:00N 37°48' W 122°22'4 7.8
2017-Nov-10 12:30N 37°49' W 122°26'5 9.3
2017-Nov-10 12:00N 37°48' W 122°32'4 8.9
2017-Nov-10 11:30N 37°46' W 122°37'6 8.5
2017-Nov-10 10:47N 37°44' W 122°45'2 8.2
2017-Nov-10 10:30N 37°43' W 122°47'4 8.6
2017-Nov-10 10:00N 37°41' W 122°52'4 8.4
2017-Nov-10 09:30N 37°39' W 122°57'4 8.2
2017-Nov-10 09:00N 37°38' W 123°02'4 8.7
2017-Nov-10 08:30N 37°38' W 123°07'5 9.0
2017-Nov-10 08:00N 37°38' W 123°13'5 8.7
2017-Nov-10 07:24N 37°39' W 123°20'10 3.0
2017-Nov-10 03:56N 37°38' W 123°07'3 7.0
2017-Nov-10 03:28N 37°38' W 123°03'3 7.3
2017-Nov-10 03:00N 37°38' W 122°58'4 7.5
2017-Nov-10 02:30N 37°40' W 122°54'4 7.3
2017-Nov-10 02:00N 37°42' W 122°50'4 7.1
2017-Nov-10 01:30N 37°44' W 122°46'3 6.8
2017-Nov-10 00:59N 37°45' W 122°42'3 7.1
2017-Nov-10 00:30N 37°46' W 122°38'4 7.4
2017-Nov-10 00:00N 37°47' W 122°34'4 7.4
2017-Nov-09 23:30N 37°49' W 122°30'3 5.7
2017-Nov-09 23:00N 37°50' W 122°26'3 6.3
2017-Nov-09 22:30N 37°48' W 122°23'2 3.3
2017-Nov-09 22:00N 37°48' W 122°21'2 3.4
2017-Nov-09 21:30N 37°49' W 122°19'0 0.6
2017-Nov-09 21:00N 37°49' W 122°19'0 0.0
2017-Nov-09 20:30N 37°49' W 122°19'0 0.0
2017-Nov-09 20:01N 37°49' W 122°19'0 0.0
2017-Nov-09 19:30N 37°49' W 122°19'  

Dump ship's entire track history